createdAt,value
2019-05-17T00:00:19.197Z,8.80
2019-05-17T00:01:23.819Z,8.80
2019-05-17T00:02:31.507Z,8.80
2019-05-17T00:03:36.566Z,8.70
2019-05-17T00:04:41.805Z,8.70
2019-05-17T00:05:46.641Z,8.70
2019-05-17T00:06:51.743Z,8.70
2019-05-17T00:07:56.710Z,8.70
2019-05-17T00:09:01.726Z,8.80
2019-05-17T00:10:07.399Z,8.80
2019-05-17T00:11:12.380Z,8.80
2019-05-17T00:12:16.805Z,8.80
2019-05-17T00:13:21.904Z,8.80
2019-05-17T00:14:31.099Z,8.80
2019-05-17T00:15:36.697Z,8.90
2019-05-17T00:16:41.111Z,8.90
2019-05-17T00:17:47.122Z,8.90
2019-05-17T00:18:51.560Z,8.90
2019-05-17T00:19:56.891Z,8.90
2019-05-17T00:21:01.364Z,8.90
2019-05-17T00:22:07.344Z,8.80
2019-05-17T00:23:12.165Z,8.90
2019-05-17T00:24:18.335Z,8.80
2019-05-17T00:25:27.380Z,8.80
2019-05-17T00:26:32.338Z,8.70
2019-05-17T00:27:36.888Z,8.70
2019-05-17T00:28:42.220Z,8.70
2019-05-17T00:29:48.664Z,8.70
2019-05-17T00:30:56.985Z,8.70
2019-05-17T00:32:02.322Z,8.70
2019-05-17T00:33:07.977Z,8.80
2019-05-17T00:34:13.014Z,8.70
2019-05-17T00:35:19.000Z,8.70
2019-05-17T00:36:23.345Z,8.70
2019-05-17T00:37:28.247Z,8.70
2019-05-17T00:38:45.597Z,8.70
2019-05-17T00:39:39.248Z,8.80
2019-05-17T00:40:43.629Z,8.70
2019-05-17T00:41:48.472Z,8.80
2019-05-17T00:42:52.924Z,8.80
2019-05-17T00:43:58.033Z,8.80
2019-05-17T00:45:02.513Z,8.80
2019-05-17T00:46:07.445Z,8.90
2019-05-17T00:47:12.004Z,8.80
2019-05-17T00:48:17.328Z,8.80
2019-05-17T00:49:21.945Z,8.80
2019-05-17T00:50:27.504Z,8.80
2019-05-17T00:51:33.428Z,8.80
2019-05-17T00:52:38.387Z,8.70
2019-05-17T00:53:42.761Z,8.80
2019-05-17T00:54:47.666Z,8.80
2019-05-17T00:55:52.167Z,8.80
2019-05-17T00:56:57.028Z,8.80
2019-05-17T00:58:02.946Z,8.80
2019-05-17T00:59:07.821Z,8.80
2019-05-17T01:00:12.425Z,8.80
2019-05-17T01:01:18.102Z,8.80
2019-05-17T01:02:22.546Z,8.70
2019-05-17T01:04:37.120Z,8.70
2019-05-17T01:05:42.153Z,8.80
2019-05-17T01:06:46.845Z,8.80
2019-05-17T01:07:51.966Z,8.80
2019-05-17T01:09:01.905Z,8.80
2019-05-17T01:10:03.002Z,8.80
2019-05-17T01:11:07.468Z,8.80
2019-05-17T01:12:12.442Z,8.80
2019-05-17T01:13:17.315Z,8.80
2019-05-17T01:14:22.529Z,8.80
2019-05-17T01:15:27.286Z,8.80
2019-05-17T01:16:32.604Z,8.80
2019-05-17T01:17:36.963Z,8.80
2019-05-17T01:18:41.996Z,8.80
2019-05-17T01:19:47.158Z,8.80
2019-05-17T01:20:52.236Z,8.80
2019-05-17T01:21:57.563Z,8.80
2019-05-17T01:23:02.553Z,8.80
2019-05-17T01:24:07.024Z,8.80
2019-05-17T01:25:12.144Z,8.80
2019-05-17T01:26:18.496Z,8.80
2019-05-17T01:27:23.528Z,8.80
2019-05-17T01:28:27.856Z,8.80
2019-05-17T01:29:32.884Z,8.80
2019-05-17T01:30:37.680Z,8.80
2019-05-17T01:31:42.741Z,8.80
2019-05-17T01:32:47.147Z,8.70
2019-05-17T01:33:56.130Z,8.80
2019-05-17T01:34:58.917Z,8.80
2019-05-17T01:36:03.835Z,8.70
2019-05-17T01:37:08.182Z,8.70
2019-05-17T01:38:14.356Z,8.80
2019-05-17T01:39:21.311Z,8.80
2019-05-17T01:40:26.435Z,8.80
2019-05-17T01:41:31.105Z,8.80
2019-05-17T01:42:37.412Z,8.80
2019-05-17T01:43:42.141Z,8.70
2019-05-17T01:44:47.339Z,8.70
2019-05-17T01:45:51.740Z,8.80
2019-05-17T01:46:56.774Z,8.80
2019-05-17T01:48:01.304Z,8.80
2019-05-17T01:49:06.930Z,8.90
2019-05-17T01:50:13.926Z,8.90
2019-05-17T01:51:18.813Z,8.90
2019-05-17T01:52:23.165Z,8.90
2019-05-17T01:53:28.105Z,8.90
2019-05-17T01:54:32.725Z,8.90
2019-05-17T01:55:37.799Z,8.80
2019-05-17T01:56:42.330Z,8.80
2019-05-17T01:57:47.755Z,8.70
2019-05-17T01:58:52.247Z,8.80
2019-05-17T01:59:57.494Z,8.80
2019-05-17T02:01:01.878Z,8.80
2019-05-17T02:02:08.917Z,8.80
2019-05-17T02:03:13.674Z,8.80
2019-05-17T02:04:18.600Z,8.80
2019-05-17T02:05:23.221Z,8.80
2019-05-17T02:06:29.000Z,8.70
2019-05-17T02:07:33.426Z,8.70
2019-05-17T02:08:38.335Z,8.70
2019-05-17T02:09:42.695Z,8.60
2019-05-17T02:10:47.670Z,8.60
2019-05-17T02:11:52.116Z,8.70
2019-05-17T02:12:57.156Z,8.70
2019-05-17T02:14:01.610Z,8.70
2019-05-17T02:15:07.085Z,8.70
2019-05-17T02:16:11.637Z,8.70
2019-05-17T02:17:17.465Z,8.60
2019-05-17T02:18:22.235Z,8.50
2019-05-17T02:19:27.130Z,8.60
2019-05-17T02:20:31.461Z,8.60
2019-05-17T02:21:39.138Z,8.60
2019-05-17T02:22:47.336Z,8.60
2019-05-17T02:23:51.900Z,8.60
2019-05-17T02:24:56.852Z,8.60
2019-05-17T02:26:01.865Z,8.60
2019-05-17T02:27:06.581Z,8.60
2019-05-17T02:28:12.222Z,8.60
2019-05-17T02:29:17.064Z,8.60
2019-05-17T02:30:23.583Z,8.60
2019-05-17T02:31:28.281Z,8.50
2019-05-17T02:32:33.811Z,8.50
2019-05-17T02:33:38.546Z,8.50
2019-05-17T02:34:43.558Z,8.60
2019-05-17T02:35:47.998Z,8.60
2019-05-17T02:36:53.491Z,8.50
2019-05-17T02:37:57.954Z,8.50
2019-05-17T02:39:05.605Z,8.50
2019-05-17T02:40:13.941Z,8.50
2019-05-17T02:41:17.068Z,8.40
2019-05-17T02:42:22.401Z,8.40
2019-05-17T02:43:27.906Z,8.50
2019-05-17T02:44:33.496Z,8.40
2019-05-17T02:45:38.828Z,8.40
2019-05-17T02:46:43.578Z,8.40
2019-05-17T02:47:48.506Z,8.40
2019-05-17T02:48:53.783Z,8.30
2019-05-17T02:49:59.477Z,8.30
2019-05-17T02:51:04.016Z,8.30
2019-05-17T02:52:12.180Z,8.20
2019-05-17T02:53:15.469Z,8.10
2019-05-17T02:54:23.232Z,8.20
2019-05-17T02:55:28.536Z,8.20
2019-05-17T02:56:33.416Z,8.10
2019-05-17T02:57:37.914Z,8.10
2019-05-17T02:58:43.892Z,8.10
2019-05-17T02:59:48.465Z,8.00
2019-05-17T03:00:53.646Z,8.00
2019-05-17T03:01:58.228Z,8.00
2019-05-17T03:03:03.942Z,8.00
2019-05-17T03:04:08.601Z,8.00
2019-05-17T03:05:14.668Z,8.10
2019-05-17T03:06:22.558Z,8.00
2019-05-17T03:07:25.704Z,8.00
2019-05-17T03:08:33.664Z,8.00
2019-05-17T03:09:37.039Z,8.10
2019-05-17T03:10:43.304Z,8.10
2019-05-17T03:11:48.118Z,8.10
2019-05-17T03:12:53.125Z,8.10
2019-05-17T03:14:04.025Z,8.10
2019-05-17T03:15:07.421Z,8.10
2019-05-17T03:17:33.905Z,8.10
2019-05-17T03:18:38.445Z,8.20
2019-05-17T03:19:43.697Z,8.20
2019-05-17T03:20:48.885Z,8.10
2019-05-17T03:21:53.745Z,8.10
2019-05-17T03:22:58.774Z,8.10
2019-05-17T03:24:03.621Z,8.10
2019-05-17T03:25:09.091Z,8.10
2019-05-17T03:26:14.242Z,8.10
2019-05-17T03:27:19.138Z,8.10
2019-05-17T03:28:24.970Z,8.20
2019-05-17T03:29:33.229Z,8.20
2019-05-17T03:30:37.275Z,8.30
2019-05-17T03:31:50.983Z,8.20
2019-05-17T03:32:55.459Z,8.30
2019-05-17T03:33:56.887Z,8.30
2019-05-17T03:35:07.157Z,8.30
2019-05-17T03:36:08.346Z,8.40
2019-05-17T03:37:16.201Z,8.30
2019-05-17T03:38:22.704Z,8.40
2019-05-17T03:39:26.102Z,8.40
2019-05-17T03:41:01.102Z,8.40
2019-05-17T03:41:38.264Z,8.40
2019-05-17T03:42:43.270Z,8.40
2019-05-17T03:43:47.937Z,8.40
2019-05-17T03:44:53.168Z,8.40
2019-05-17T03:45:57.571Z,8.40
2019-05-17T03:47:03.587Z,8.40
2019-05-17T03:48:08.033Z,8.40
2019-05-17T03:49:13.632Z,8.40
2019-05-17T03:50:17.979Z,8.40
2019-05-17T03:51:23.468Z,8.40
2019-05-17T03:52:28.101Z,8.50
2019-05-17T03:53:33.656Z,8.50
2019-05-17T03:54:42.798Z,8.50
2019-05-17T03:55:48.456Z,8.50
2019-05-17T03:56:53.415Z,8.50
2019-05-17T03:57:58.363Z,8.50
2019-05-17T03:59:03.942Z,8.50
2019-05-17T04:00:09.548Z,8.50
2019-05-17T04:01:14.461Z,8.50
2019-05-17T04:02:19.382Z,8.50
2019-05-17T04:03:23.821Z,8.50
2019-05-17T04:04:28.770Z,8.60
2019-05-17T04:05:33.755Z,8.50
2019-05-17T04:06:46.369Z,8.50
2019-05-17T04:07:53.676Z,8.50
2019-05-17T04:08:57.413Z,8.60
2019-05-17T04:10:04.507Z,8.60
2019-05-17T04:11:22.519Z,8.70
2019-05-17T04:12:15.977Z,8.70
2019-05-17T04:13:23.429Z,8.70
2019-05-17T04:14:27.044Z,8.70
2019-05-17T04:15:32.926Z,8.70
2019-05-17T04:16:37.468Z,8.70
2019-05-17T04:17:43.862Z,8.80
2019-05-17T04:18:48.510Z,8.80
2019-05-17T04:19:53.605Z,8.80
2019-05-17T04:20:58.183Z,8.90
2019-05-17T04:22:03.890Z,8.90
2019-05-17T04:23:08.441Z,8.90
2019-05-17T04:24:14.349Z,9.00
2019-05-17T04:25:18.748Z,9.00
2019-05-17T04:26:23.702Z,8.90
2019-05-17T04:27:28.261Z,9.00
2019-05-17T04:28:33.707Z,9.00
2019-05-17T04:29:38.328Z,9.00
2019-05-17T04:30:43.937Z,9.00
2019-05-17T04:31:48.408Z,9.00
2019-05-17T04:32:53.309Z,9.00
2019-05-17T04:34:02.641Z,9.10
2019-05-17T04:35:06.559Z,9.10
2019-05-17T04:36:13.319Z,9.10
2019-05-17T04:37:22.892Z,9.10
2019-05-17T04:38:27.486Z,9.10
2019-05-17T04:39:32.750Z,9.10
2019-05-17T04:40:37.237Z,9.20
2019-05-17T04:41:49.774Z,9.10
2019-05-17T04:42:48.380Z,9.20
2019-05-17T04:43:53.438Z,9.30
2019-05-17T04:44:58.032Z,9.40
2019-05-17T04:46:03.460Z,9.40
2019-05-17T04:47:07.967Z,9.40
2019-05-17T04:48:13.560Z,9.40
2019-05-17T04:49:18.072Z,9.40
2019-05-17T04:50:23.293Z,9.40
2019-05-17T04:51:28.215Z,9.50
2019-05-17T04:52:33.767Z,9.40
2019-05-17T04:53:39.232Z,9.40
2019-05-17T04:54:44.381Z,9.40
2019-05-17T04:55:48.982Z,9.50
2019-05-17T04:56:53.998Z,9.60
2019-05-17T04:57:58.396Z,9.60
2019-05-17T04:59:03.942Z,9.70
2019-05-17T05:00:12.664Z,9.70
2019-05-17T05:01:16.038Z,9.70
2019-05-17T05:02:23.404Z,9.70
2019-05-17T05:03:27.518Z,9.70
2019-05-17T05:04:33.373Z,9.70
2019-05-17T05:05:42.571Z,9.90
2019-05-17T05:06:45.802Z,9.90
2019-05-17T05:07:53.451Z,10.10
2019-05-17T05:08:57.226Z,10.40
2019-05-17T05:10:04.686Z,10.80
2019-05-17T05:11:09.073Z,11.30
2019-05-17T05:12:14.720Z,11.90
2019-05-17T05:13:22.497Z,12.40
2019-05-17T05:14:26.010Z,12.70
2019-05-17T05:15:44.175Z,13.00
2019-05-17T05:16:48.112Z,13.10
2019-05-17T05:17:52.760Z,13.30
2019-05-17T05:18:59.185Z,13.30
2019-05-17T05:20:03.710Z,13.30
2019-05-17T05:21:08.637Z,13.10
2019-05-17T05:22:17.404Z,12.90
2019-05-17T05:23:23.542Z,12.70
2019-05-17T05:24:26.450Z,12.70
2019-05-17T05:25:32.352Z,12.80
2019-05-17T05:26:37.013Z,12.80
2019-05-17T05:27:42.764Z,12.70
2019-05-17T05:28:49.616Z,12.40
2019-05-17T05:29:54.184Z,12.40
2019-05-17T05:30:58.629Z,12.30
2019-05-17T05:32:04.081Z,12.00
2019-05-17T05:33:08.572Z,11.90
2019-05-17T05:34:14.092Z,11.70
2019-05-17T05:35:18.438Z,11.60
2019-05-17T05:36:23.429Z,11.60
2019-05-17T05:37:27.878Z,11.60
2019-05-17T05:38:32.954Z,11.60
2019-05-17T05:39:37.475Z,11.40
2019-05-17T05:40:42.605Z,11.50
2019-05-17T05:41:47.089Z,11.50
2019-05-17T05:42:52.161Z,11.50
2019-05-17T05:43:56.522Z,11.50
2019-05-17T05:45:03.155Z,11.50
2019-05-17T05:46:07.692Z,11.60
2019-05-17T05:47:12.957Z,11.50
2019-05-17T05:48:17.325Z,11.40
2019-05-17T05:49:22.739Z,11.40
2019-05-17T05:50:27.241Z,11.40
2019-05-17T05:51:33.854Z,11.40
2019-05-17T05:52:38.389Z,11.50
2019-05-17T05:53:43.338Z,11.40
2019-05-17T05:54:47.743Z,11.50
2019-05-17T05:55:52.664Z,11.50
2019-05-17T05:56:57.113Z,11.50
2019-05-17T05:58:02.995Z,11.50
2019-05-17T05:59:07.541Z,11.50
2019-05-17T06:00:14.033Z,11.50
2019-05-17T06:01:18.420Z,11.50
2019-05-17T06:02:23.330Z,11.60
2019-05-17T06:03:27.843Z,11.70
2019-05-17T06:04:32.761Z,11.80
2019-05-17T06:05:37.313Z,11.90
2019-05-17T06:06:43.306Z,12.30
2019-05-17T06:07:47.766Z,13.20
2019-05-17T06:08:52.700Z,14.20
2019-05-17T06:09:57.169Z,14.90
2019-05-17T06:11:02.422Z,15.40
2019-05-17T06:12:18.991Z,15.50
2019-05-17T06:13:14.120Z,15.80
2019-05-17T06:14:18.448Z,16.10
2019-05-17T06:15:23.357Z,16.20
2019-05-17T06:16:27.993Z,16.40
2019-05-17T06:17:34.320Z,16.20
2019-05-17T06:18:38.689Z,16.00
2019-05-17T06:19:43.609Z,15.50
2019-05-17T06:20:47.996Z,15.10
2019-05-17T06:21:52.966Z,14.70
2019-05-17T06:22:57.383Z,14.50
2019-05-17T06:24:03.614Z,14.10
2019-05-17T06:25:08.766Z,13.90
2019-05-17T06:26:17.576Z,13.60
2019-05-17T06:27:21.564Z,13.30
2019-05-17T06:28:26.701Z,13.10
2019-05-17T06:29:32.850Z,12.90
2019-05-17T06:30:37.880Z,12.70
2019-05-17T06:31:43.263Z,12.70
2019-05-17T06:32:48.830Z,12.70
2019-05-17T06:33:53.242Z,12.50
2019-05-17T06:34:58.338Z,12.40
2019-05-17T06:36:03.028Z,12.40
2019-05-17T06:37:08.193Z,12.30
2019-05-17T06:38:13.050Z,12.30
2019-05-17T06:39:18.330Z,12.30
2019-05-17T06:40:22.693Z,12.40
2019-05-17T06:41:27.621Z,12.40
2019-05-17T06:42:40.469Z,12.30
2019-05-17T06:43:38.953Z,12.30
2019-05-17T06:44:43.587Z,12.20
2019-05-17T06:45:52.028Z,12.10
2019-05-17T06:46:57.183Z,12.10
2019-05-17T06:48:02.641Z,12.00
2019-05-17T06:49:07.218Z,12.00
2019-05-17T06:50:14.453Z,11.90
2019-05-17T06:51:19.151Z,11.90
2019-05-17T06:52:24.034Z,12.00
2019-05-17T06:53:28.550Z,11.90
2019-05-17T06:54:33.484Z,11.80
2019-05-17T06:55:37.817Z,11.80
2019-05-17T06:56:42.716Z,11.70
2019-05-17T06:57:48.869Z,11.70
2019-05-17T06:58:53.805Z,11.80
2019-05-17T06:59:59.383Z,11.80
2019-05-17T07:01:04.834Z,11.80
2019-05-17T07:02:10.392Z,11.80
2019-05-17T07:03:15.727Z,11.80
2019-05-17T07:04:20.248Z,11.90
2019-05-17T07:05:29.351Z,12.00
2019-05-17T07:06:34.396Z,12.10
2019-05-17T07:07:40.517Z,12.10
2019-05-17T07:08:45.036Z,12.10
2019-05-17T07:09:49.965Z,12.10
2019-05-17T07:10:55.798Z,12.10
2019-05-17T07:12:00.684Z,12.10
2019-05-17T07:13:05.153Z,12.00
2019-05-17T07:14:10.126Z,12.00
2019-05-17T07:15:15.044Z,12.00
2019-05-17T07:16:20.073Z,12.00
2019-05-17T07:17:24.518Z,11.90
2019-05-17T07:18:30.613Z,11.90
2019-05-17T07:19:35.135Z,11.90
2019-05-17T07:20:40.154Z,11.90
2019-05-17T07:21:44.612Z,11.90
2019-05-17T07:22:50.751Z,11.90
2019-05-17T07:23:55.197Z,11.90
2019-05-17T07:25:00.236Z,12.00
2019-05-17T07:26:04.758Z,12.00
2019-05-17T07:27:10.080Z,12.10
2019-05-17T07:28:15.655Z,12.20
2019-05-17T07:29:20.853Z,12.30
2019-05-17T07:30:26.352Z,12.50
2019-05-17T07:31:31.459Z,12.70
2019-05-17T07:32:37.628Z,12.90
2019-05-17T07:33:42.709Z,13.10
2019-05-17T07:34:47.120Z,13.30
2019-05-17T07:35:52.136Z,13.50
2019-05-17T07:36:56.628Z,13.60
2019-05-17T07:38:01.517Z,13.60
2019-05-17T07:39:06.594Z,13.60
2019-05-17T07:40:13.173Z,13.60
2019-05-17T07:41:20.246Z,13.60
2019-05-17T07:42:24.519Z,13.50
2019-05-17T07:43:29.908Z,13.40
2019-05-17T07:44:35.378Z,13.40
2019-05-17T07:45:41.679Z,13.30
2019-05-17T07:46:46.680Z,13.20
2019-05-17T07:47:51.044Z,13.00
2019-05-17T07:48:56.118Z,12.90
2019-05-17T07:50:01.112Z,12.70
2019-05-17T07:51:09.955Z,12.70
2019-05-17T07:52:14.074Z,12.60
2019-05-17T07:53:20.056Z,12.50
2019-05-17T07:54:25.065Z,12.50
2019-05-17T07:55:30.303Z,12.60
2019-05-17T07:56:35.955Z,12.80
2019-05-17T07:57:41.299Z,13.10
2019-05-17T07:58:45.714Z,13.20
2019-05-17T07:59:50.859Z,13.40
2019-05-17T08:00:55.654Z,13.60
2019-05-17T08:02:00.686Z,13.60
2019-05-17T08:03:05.046Z,13.60
2019-05-17T08:04:10.233Z,13.50
2019-05-17T08:05:14.986Z,13.40
2019-05-17T08:06:20.091Z,13.40
2019-05-17T08:07:24.457Z,13.20
2019-05-17T08:08:31.052Z,13.10
2019-05-17T08:09:35.393Z,13.00
2019-05-17T08:10:41.261Z,12.80
2019-05-17T08:11:45.888Z,12.80
2019-05-17T08:12:50.932Z,12.80
2019-05-17T08:13:55.444Z,12.80
2019-05-17T08:15:01.608Z,12.80
2019-05-17T08:16:06.054Z,12.70
2019-05-17T08:17:12.489Z,12.70
2019-05-17T08:18:16.910Z,12.50
2019-05-17T08:19:21.945Z,12.30
2019-05-17T08:20:26.846Z,12.30
2019-05-17T08:21:31.977Z,12.20
2019-05-17T08:22:36.350Z,12.20
2019-05-17T08:23:41.292Z,12.10
2019-05-17T08:24:45.707Z,12.10
2019-05-17T08:25:55.988Z,12.10
2019-05-17T08:26:59.612Z,12.10
2019-05-17T08:28:04.279Z,12.10
2019-05-17T08:29:09.989Z,12.10
2019-05-17T08:30:16.376Z,12.10
2019-05-17T08:31:21.102Z,12.10
2019-05-17T08:32:26.058Z,12.00
2019-05-17T08:33:30.656Z,11.90
2019-05-17T08:34:35.614Z,11.80
2019-05-17T08:35:40.443Z,11.70
2019-05-17T08:36:46.629Z,11.70
2019-05-17T08:37:51.086Z,11.60
2019-05-17T08:38:55.978Z,11.50
2019-05-17T08:40:00.448Z,11.50
2019-05-17T08:41:05.535Z,11.40
2019-05-17T08:42:10.240Z,11.40
2019-05-17T08:43:15.595Z,11.40
2019-05-17T08:44:20.039Z,11.40
2019-05-17T08:45:24.934Z,11.30
2019-05-17T08:46:30.554Z,11.30
2019-05-17T08:47:35.897Z,11.30
2019-05-17T08:48:40.362Z,11.30
2019-05-17T08:49:45.263Z,11.40
2019-05-17T08:50:49.667Z,11.40
2019-05-17T08:51:54.938Z,11.50
2019-05-17T08:52:59.987Z,11.50
2019-05-17T08:54:06.811Z,11.50
2019-05-17T08:55:11.495Z,11.50
2019-05-17T08:56:16.496Z,11.50
2019-05-17T08:57:21.500Z,11.50
2019-05-17T08:58:29.752Z,11.60
2019-05-17T08:59:34.308Z,11.70
2019-05-17T09:00:40.592Z,11.90
2019-05-17T09:01:45.696Z,12.00
2019-05-17T09:02:50.607Z,12.10
2019-05-17T09:03:55.009Z,12.20
2019-05-17T09:05:00.508Z,12.20
2019-05-17T09:06:05.000Z,12.30
2019-05-17T09:07:10.252Z,12.20
2019-05-17T09:08:15.698Z,12.20
2019-05-17T09:09:20.665Z,12.10
2019-05-17T09:10:25.292Z,12.10
2019-05-17T09:11:30.385Z,12.00
2019-05-17T09:12:35.121Z,12.00
2019-05-17T09:13:43.996Z,12.00
2019-05-17T09:14:46.609Z,11.90
2019-05-17T09:15:51.534Z,11.90
2019-05-17T09:16:55.917Z,12.00
2019-05-17T09:18:00.965Z,12.00
2019-05-17T09:19:06.527Z,12.10
2019-05-17T09:20:12.451Z,12.10
2019-05-17T09:21:16.882Z,12.00
2019-05-17T09:22:21.781Z,12.00
2019-05-17T09:23:26.457Z,11.90
2019-05-17T09:24:31.504Z,11.90
2019-05-17T09:25:39.499Z,11.80
2019-05-17T09:26:43.849Z,11.90
2019-05-17T09:27:50.130Z,11.80
2019-05-17T09:28:54.808Z,11.80
2019-05-17T09:30:00.101Z,11.80
2019-05-17T09:31:05.365Z,11.90
2019-05-17T09:32:10.984Z,11.90
2019-05-17T09:33:16.185Z,12.00
2019-05-17T09:34:20.590Z,12.00
2019-05-17T09:35:25.485Z,12.10
2019-05-17T09:36:30.439Z,12.20
2019-05-17T09:37:35.740Z,12.40
2019-05-17T09:38:40.504Z,12.60
2019-05-17T09:39:45.656Z,12.70
2019-05-17T09:40:50.604Z,12.90
2019-05-17T09:41:55.655Z,13.20
2019-05-17T09:43:00.563Z,13.60
2019-05-17T09:44:13.013Z,14.00
2019-05-17T09:45:12.038Z,14.20
2019-05-17T09:46:19.471Z,14.40
2019-05-17T09:47:23.320Z,14.60
2019-05-17T09:48:30.597Z,14.80
2019-05-17T09:49:34.667Z,14.90
2019-05-17T09:50:40.563Z,14.90
2019-05-17T09:51:45.338Z,14.80
2019-05-17T09:52:50.764Z,14.70
2019-05-17T09:53:55.227Z,14.60
2019-05-17T09:55:00.681Z,14.50
2019-05-17T09:56:05.421Z,14.20
2019-05-17T09:57:11.635Z,13.90
2019-05-17T09:58:16.014Z,13.80
2019-05-17T09:59:21.097Z,13.70
2019-05-17T10:00:25.816Z,13.70
2019-05-17T10:01:30.881Z,13.70
2019-05-17T10:02:35.300Z,13.60
2019-05-17T10:03:40.301Z,13.60
2019-05-17T10:04:44.771Z,13.50
2019-05-17T10:05:49.773Z,13.50
2019-05-17T10:06:54.645Z,13.50
2019-05-17T10:08:00.043Z,13.50
2019-05-17T10:09:06.324Z,13.60
2019-05-17T10:10:12.924Z,13.60
2019-05-17T10:11:20.081Z,13.80
2019-05-17T10:12:26.010Z,14.00
2019-05-17T10:13:30.428Z,14.20
2019-05-17T10:14:35.287Z,14.30
2019-05-17T10:15:41.939Z,14.30
2019-05-17T10:16:46.878Z,14.30
2019-05-17T10:17:51.232Z,14.50
2019-05-17T10:18:59.963Z,14.50
2019-05-17T10:20:03.732Z,14.60
2019-05-17T10:21:10.467Z,14.70
2019-05-17T10:22:15.378Z,14.90
2019-05-17T10:23:20.333Z,14.90
2019-05-17T10:24:35.987Z,14.90
2019-05-17T10:25:31.400Z,15.00
2019-05-17T10:26:36.478Z,15.00
2019-05-17T10:27:41.676Z,14.80
2019-05-17T10:28:46.163Z,14.60
2019-05-17T10:29:53.072Z,14.60
2019-05-17T10:30:57.484Z,14.50
2019-05-17T10:32:02.672Z,14.60
2019-05-17T10:33:09.563Z,14.60
2019-05-17T10:34:14.334Z,14.60
2019-05-17T10:35:19.959Z,14.70
2019-05-17T10:36:25.451Z,14.70
2019-05-17T10:37:30.382Z,14.80
2019-05-17T10:38:35.608Z,14.90
2019-05-17T10:39:41.855Z,14.80
2019-05-17T10:40:46.949Z,14.90
2019-05-17T10:41:51.584Z,14.80
2019-05-17T10:42:56.540Z,14.70
2019-05-17T10:44:00.913Z,14.50
2019-05-17T10:45:10.584Z,14.40
2019-05-17T10:46:14.578Z,14.40
2019-05-17T10:47:19.759Z,14.10
2019-05-17T10:48:24.217Z,14.10
2019-05-17T10:49:30.705Z,14.00
2019-05-17T10:50:36.163Z,14.00
2019-05-17T10:51:42.185Z,13.80
2019-05-17T10:52:48.169Z,13.80
2019-05-17T10:53:53.299Z,13.80
2019-05-17T10:54:59.908Z,13.90
2019-05-17T10:56:05.662Z,13.90
2019-05-17T10:57:10.573Z,13.90
2019-05-17T10:58:15.829Z,13.90
2019-05-17T10:59:20.387Z,13.90
2019-05-17T11:00:26.492Z,13.80
2019-05-17T11:01:31.607Z,13.80
2019-05-17T11:02:36.889Z,13.90
2019-05-17T11:03:41.284Z,13.90
2019-05-17T11:04:46.307Z,13.90
2019-05-17T11:05:50.891Z,14.00
2019-05-17T11:06:56.878Z,14.10
2019-05-17T11:08:01.591Z,14.20
2019-05-17T11:09:10.071Z,14.40
2019-05-17T11:10:14.621Z,14.50
2019-05-17T11:11:20.181Z,14.50
2019-05-17T11:12:24.851Z,14.50
2019-05-17T11:13:31.585Z,14.50
2019-05-17T11:14:50.375Z,14.50
2019-05-17T11:15:42.753Z,14.40
2019-05-17T11:16:47.198Z,14.30
2019-05-17T11:17:53.657Z,14.30
2019-05-17T11:18:58.169Z,14.30
2019-05-17T11:20:03.165Z,14.20
2019-05-17T11:21:07.525Z,14.10
2019-05-17T11:22:13.209Z,13.90
2019-05-17T11:23:19.020Z,13.80
2019-05-17T11:24:23.994Z,13.70
2019-05-17T11:25:28.413Z,13.70
2019-05-17T11:26:33.529Z,13.70
2019-05-17T11:27:37.994Z,13.70
2019-05-17T11:28:44.134Z,13.70
2019-05-17T11:29:49.476Z,13.60
2019-05-17T11:30:54.410Z,13.50
2019-05-17T11:31:59.953Z,13.40
2019-05-17T11:33:04.936Z,13.40
2019-05-17T11:34:10.069Z,13.30
2019-05-17T11:35:15.461Z,13.20
2019-05-17T11:36:20.000Z,13.20
2019-05-17T11:37:25.088Z,13.20
2019-05-17T11:38:29.509Z,13.20
2019-05-17T11:39:35.235Z,13.20
2019-05-17T11:40:41.301Z,13.20
2019-05-17T11:41:46.579Z,13.20
2019-05-17T11:42:51.114Z,13.40
2019-05-17T11:43:57.755Z,13.40
2019-05-17T11:45:03.051Z,13.50
2019-05-17T11:46:08.118Z,13.40
2019-05-17T11:47:13.227Z,13.50
2019-05-17T11:48:18.543Z,13.50
2019-05-17T11:49:23.134Z,13.50
2019-05-17T11:50:28.231Z,13.60
2019-05-17T11:51:32.979Z,13.60
2019-05-17T11:52:38.031Z,13.60
2019-05-17T11:53:42.712Z,13.50
2019-05-17T11:54:47.794Z,13.40
2019-05-17T11:55:52.319Z,13.30
2019-05-17T11:56:57.297Z,13.30
2019-05-17T11:58:02.090Z,13.20
2019-05-17T11:59:07.119Z,13.20
2019-05-17T12:00:13.383Z,13.20
2019-05-17T12:01:19.728Z,13.20
2019-05-17T12:02:24.211Z,13.20
2019-05-17T12:03:29.294Z,13.20
2019-05-17T12:04:33.750Z,13.30
2019-05-17T12:05:38.897Z,13.40
2019-05-17T12:06:43.417Z,13.40
2019-05-17T12:07:48.537Z,13.40
2019-05-17T12:08:54.002Z,13.40
2019-05-17T12:09:58.956Z,13.40
2019-05-17T12:11:03.603Z,13.40
2019-05-17T12:12:08.620Z,13.50
2019-05-17T12:13:13.604Z,13.60
2019-05-17T12:14:18.914Z,13.70
2019-05-17T12:15:23.396Z,13.80
2019-05-17T12:16:30.192Z,13.90
2019-05-17T12:17:34.697Z,14.10
2019-05-17T12:18:41.605Z,14.30
2019-05-17T12:19:46.200Z,14.40
2019-05-17T12:20:51.289Z,14.40
2019-05-17T12:21:55.977Z,14.60
2019-05-17T12:23:01.046Z,14.70
2019-05-17T12:24:05.478Z,14.70
2019-05-17T12:25:11.322Z,14.70
2019-05-17T12:26:16.307Z,14.80
2019-05-17T12:27:21.449Z,14.80
2019-05-17T12:28:25.888Z,14.80
2019-05-17T12:29:31.440Z,14.90
2019-05-17T12:30:35.861Z,15.00
2019-05-17T12:31:41.836Z,15.10
2019-05-17T12:32:46.356Z,15.10
2019-05-17T12:33:51.369Z,15.20
2019-05-17T12:34:55.737Z,15.20
2019-05-17T12:36:02.186Z,15.20
2019-05-17T12:37:06.715Z,15.20
2019-05-17T12:38:12.091Z,15.10
2019-05-17T12:39:16.583Z,15.00
2019-05-17T12:40:22.397Z,14.70
2019-05-17T12:41:26.705Z,14.50
2019-05-17T12:42:31.865Z,14.50
2019-05-17T12:43:36.373Z,14.50
2019-05-17T12:44:41.389Z,14.50
2019-05-17T12:45:59.639Z,14.50
2019-05-17T12:46:53.862Z,14.40
2019-05-17T12:48:00.013Z,14.50
2019-05-17T12:49:06.364Z,14.40
2019-05-17T12:50:11.617Z,14.50
2019-05-17T12:51:17.123Z,14.50
2019-05-17T12:52:21.691Z,14.50
2019-05-17T12:53:26.784Z,14.60
2019-05-17T12:54:31.414Z,14.60
2019-05-17T12:55:36.561Z,14.70
2019-05-17T12:56:41.100Z,14.80
2019-05-17T12:57:46.415Z,14.80
2019-05-17T12:58:50.924Z,14.70
2019-05-17T12:59:56.134Z,14.70
2019-05-17T13:01:00.689Z,14.70
2019-05-17T13:02:05.760Z,14.70
2019-05-17T13:03:10.512Z,14.70
2019-05-17T13:04:16.005Z,14.80
2019-05-17T13:05:20.529Z,14.90
2019-05-17T13:06:26.241Z,15.00
2019-05-17T13:07:30.826Z,15.10
2019-05-17T13:08:36.187Z,15.30
2019-05-17T13:09:40.680Z,15.40
2019-05-17T13:10:47.307Z,15.50
2019-05-17T13:11:51.763Z,15.70
2019-05-17T13:12:56.781Z,15.80
2019-05-17T13:14:01.161Z,16.00
2019-05-17T13:15:06.667Z,16.10
2019-05-17T13:16:17.784Z,16.20
2019-05-17T13:17:20.555Z,16.30
2019-05-17T13:18:25.128Z,16.50
2019-05-17T13:19:30.455Z,16.50
2019-05-17T13:20:34.939Z,16.50
2019-05-17T13:21:47.605Z,16.50
2019-05-17T13:22:53.431Z,16.50
2019-05-17T13:23:58.941Z,16.60
2019-05-17T13:25:03.760Z,16.50
2019-05-17T13:26:08.873Z,16.40
2019-05-17T13:27:13.909Z,16.30
2019-05-17T13:28:18.996Z,16.20
2019-05-17T13:29:23.430Z,16.00
2019-05-17T13:30:28.373Z,16.00
2019-05-17T13:31:33.153Z,15.90
2019-05-17T13:32:38.357Z,15.90
2019-05-17T13:33:42.827Z,15.90
2019-05-17T13:34:47.844Z,15.90
2019-05-17T13:35:52.761Z,15.90
2019-05-17T13:36:57.803Z,15.90
2019-05-17T13:38:02.271Z,15.90
2019-05-17T13:39:08.185Z,15.90
2019-05-17T13:40:13.644Z,16.00
2019-05-17T13:41:18.614Z,16.10
2019-05-17T13:42:23.222Z,16.20
2019-05-17T13:43:28.636Z,16.40
2019-05-17T13:44:34.202Z,16.50
2019-05-17T13:45:39.267Z,16.50
2019-05-17T13:46:43.688Z,16.50
2019-05-17T13:47:48.822Z,16.60
2019-05-17T13:48:53.253Z,16.60
2019-05-17T13:49:58.632Z,16.70
2019-05-17T13:51:03.122Z,16.70
2019-05-17T13:52:08.122Z,16.90
2019-05-17T13:53:13.207Z,16.90
2019-05-17T13:54:18.199Z,17.10
2019-05-17T13:55:22.710Z,17.30
2019-05-17T13:56:27.732Z,17.40
2019-05-17T13:57:32.239Z,17.60
2019-05-17T13:58:38.336Z,17.80
2019-05-17T13:59:42.914Z,18.10
2019-05-17T14:00:47.989Z,18.20
2019-05-17T14:01:54.103Z,18.20
2019-05-17T14:02:59.104Z,18.30
2019-05-17T14:04:03.566Z,18.30
2019-05-17T14:05:09.105Z,18.40
2019-05-17T14:06:15.579Z,18.30
2019-05-17T14:07:20.739Z,18.20
2019-05-17T14:08:25.158Z,18.00
2019-05-17T14:09:30.233Z,17.90
2019-05-17T14:10:34.605Z,17.70
2019-05-17T14:11:39.613Z,17.60
2019-05-17T14:12:45.066Z,17.40